Date,TemperatureHighF,TemperatureAvgF,TemperatureLowF,DewpointHighF,DewpointAvgF,DewpointLowF,HumidityHigh,HumidityAvg,HumidityLow,PressureMaxIn,PressureMinIn,WindSpeedMaxMPH,WindSpeedAvgMPH,GustSpeedMaxMPH,PrecipitationSumIn
2013-3-1,28,22,17,23,18,13,91,84,75,30.29,30.10,16,7,16,0.00
2013-3-2,39,28,21,31,24,19,95,83,69,30.10,29.92,18,6,18,0.00
2013-3-3,28,23,18,24,20,15,96,91,83,29.92,29.65,22,8,22,0.00
2013-3-4,24,21,20,23,20,19,97,94,91,29.71,29.59,27,15,27,0.00
2013-3-5,24,12,-3,17,6,-9,88,78,72,30.38,30.14,17,6,17,0.00
2013-3-6,19,7,-5,10,0,-12,79,73,65,30.36,30.09,17,7,17,0.00
2013-3-7,28,17,6,23,12,0,89,80,75,30.11,30.00,18,6,18,0.00
2013-3-8,29,20,13,20,13,7,89,74,52,30.19,30.03,14,5,14,0.00
2013-3-9,29,20,9,26,14,3,89,79,64,30.16,29.90,32,8,32,0.00
2013-3-10,29,13,2,16,5,-7,79,68,50,30.28,30.04,15,5,15,0.00
2013-3-11,34,24,11,26,18,6,93,78,69,30.03,29.79,30,12,30,0.11
2013-3-12,23,16,-3,21,8,-10,91,72,50,30.28,29.94,29,11,29,0.01
2013-3-13,44,22,-4,33,14,-11,87,71,55,30.28,29.91,20,5,20,0.00
2013-3-14,46,30,21,35,26,17,94,84,64,30.12,29.94,17,6,17,0.00
2013-3-15,21,10,-4,18,4,-11,91,77,66,30.16,29.98,18,8,18,0.00
2013-3-16,15,2,-14,1,-9,-22,74,60,40,30.21,30.14,14,5,14,0.00
2013-3-17,18,11,3,14,5,-5,87,76,64,30.14,29.57,27,11,27,0.00
2013-3-18,15,7,-1,8,-2,-10,86,65,44,30.00,29.61,33,15,33,0.08
2013-3-19,16,6,-5,3,-3,-13,75,66,56,30.38,29.98,24,8,24,0.00
2013-3-20,22,7,-8,6,-4,-16,70,59,40,30.38,30.08,15,5,15,0.00
2013-3-21,19,7,-5,5,-3,-13,73,62,46,30.09,29.99,17,8,17,0.00
2013-3-22,21,12,4,14,4,-3,85,73,58,30.12,29.98,13,7,13,0.00
2013-3-23,29,18,12,16,12,8,86,78,56,30.20,30.11,12,4,12,0.04
2013-3-24,25,18,7,15,12,0,87,77,62,30.32,30.18,17,8,17,0.01
2013-3-25,28,12,0,14,4,-7,79,70,54,30.35,30.25,11,5,11,0.00
2013-3-26,32,14,-1,20,6,-7,80,71,60,30.26,30.17,15,5,15,0.00
2013-3-27,34,18,3,21,10,-2,87,73,57,30.20,30.14,11,4,11,0.00
2013-3-28,40,19,5,26,13,0,93,77,55,30.21,30.15,7,2,7,0.00
2013-3-29,45,23,7,32,19,2,93,83,55,30.21,30.01,11,2,11,0.01
2013-3-30,43,33,24,37,28,22,100,83,67,30.03,29.97,25,9,25,0.01
2013-3-31,29,24,14,24,14,7,84,66,49,30.25,30.00,26,10,26,0.01